Terminal Aerodrome Forecast
Issued by NWS Louisville, KY

Home | Current Version | Previous Version | Text Only | Print | Product List | Glossary On
Versions: 1 2 3 4 5 6 7 8 9 10 11 12 13 14 15 16 17
000
FTUS43 KLMK 261100
TAFBWG
TAF
KBWG 261139Z 2612/2712 32012G18KT P6SM OVC012
     FM261500 31010KT P6SM BKN015
     FM262200 VRB04KT P6SM SCT020 BKN050
     FM270300 VRB04KT 4SM -SN BKN018
      TEMPO 2706/2710 2SM -SN BKN009=

USA.gov is the U.S. government's official web portal to all federal, state and local government web resources and services.